Airfield :
LOGIN :

Register | Disclaimer

   EN    FR    IT 

 










Legend :    VFR   Marginal VFR   IFR   Intensive IFR   Very Intensive IFR
Visi :
Ceiling :
>= 8 km
>= 3000ft
5 to 8 km
1000 to 3000 ft
1500m to 5 km
500 to 1000 ft
800 to 1500m
200 to 500 ft
< 800m
< 200 ft
Symbols :   Thunderstorms  Fog  Heavy snow  Heavy precipitations  Wind > 20 kt
SIGMETs :     Misc.  Thunderstorms  Icing  Turbulence  Mountain Waves  Volcanic Ashes






- Airport Elevation : 526 ft
- IATA code : LTN


EGGW - London Luton

CURRENT METAR :
  • 152050Z AUTO 05013KT 9999 -RA BKN007/// BKN010/// BKN015/// //////TCU 05/05 Q1001

EXPIRED METARs :
  • 152020Z AUTO 02012KT 9999 -RA BKN004/// BKN008/// OVC029/// //////TCU 06/05 Q1001
  • 151950Z AUTO 03013KT 6000 -RA OVC005 06/05 Q1001
  • 151920Z AUTO 01014KT 8000 -RA BKN005 OVC009 06/05 Q1001
  • 151850Z AUTO 01015G26KT 7000 -RA BKN006 OVC017 06/05 Q1001
  • 151820Z AUTO 36016KT 9000 -RA BKN008/// OVC013/// //////TCU 06/05 Q1001

TAF TAF EGGW
Valid from the 15 at 18:00 until the 16 at 18:00 UTC


151708Z 1518/1618 02013KT 9999 FEW010 SCT022
TEMPO 1518/1520 02017G27KT
TEMPO 1518/1522 4000 RADZ BKN004
TEMPO 1522/1611 7000 BKN007
PROB30
TEMPO 1603/1610 4000 BR BKN004
BECMG 1607/1610 VRB03KT
ATIS : +44 1582 395 204



MET'MAP, your aeronautical weather chart ! - Copyright ORBIFLY December 2007 - Disclaimer

ORBIFLY MET'MAP TEAM :

Programming & Development : Alexandra Zaïnal
Concept & Development : Baudouin d'Aumeries
Co-Development & Prog : Marc-Olivier Méhu
Technical & hardware support : Manuel Goepfert

Contact : metmap@orbifly.com




SOURCES & CREDITS :

   NOAA